Humberston, United Kingdom
Current Conditions -  °F | °C
As of 10:50 PM on Thursday 27 Nov 2014 (Local Time) from EGXS Reporting Station
Broken Clouds Broken Clouds  
Wind Chill: 10°   Ceiling: 6000
Heat Index: 10°   Visibility: 2.8mi
Dew Point:   Wind: 10mph
Humidity: 94%   Direction: 100°E
Pressure: 29.65"   Gusts: NA
Location:  53.53°N, 0.02°W
Report Text: EGXS 272250Z AUTO 10009KT 4500 // FEW018/// SCT025/// BKN060/// 10/09 Q1004
Loading
Personal Weather Stations






























Interactive Weather Map New forecast layout! Learn more

10-Day Weather Forecast

Advertisements
Track Severe Weather on mobile